sensor_id;sensor_type;location;lat;lon;timestamp;P1;durP1;ratioP1;P2;durP2;ratioP2
21183;SDS011;18176;49.502;11.754;2023-07-28T00:02:16;7.07;;;5.07;;
21183;SDS011;18176;49.502;11.754;2023-07-28T00:06:16;6.00;;;5.10;;
21183;SDS011;18176;49.502;11.754;2023-07-28T00:10:19;7.82;;;5.30;;
21183;SDS011;18176;49.502;11.754;2023-07-28T00:14:20;6.20;;;4.82;;
21183;SDS011;18176;49.502;11.754;2023-07-28T00:18:21;5.38;;;4.50;;
21183;SDS011;18176;49.502;11.754;2023-07-28T00:22:22;10.10;;;4.97;;
21183;SDS011;18176;49.502;11.754;2023-07-28T00:26:25;7.43;;;4.65;;
21183;SDS011;18176;49.502;11.754;2023-07-28T00:30:25;8.43;;;4.65;;
21183;SDS011;18176;49.502;11.754;2023-07-28T00:34:26;5.90;;;3.92;;
21183;SDS011;18176;49.502;11.754;2023-07-28T00:38:27;5.57;;;4.20;;
21183;SDS011;18176;49.502;11.754;2023-07-28T00:42:29;6.18;;;4.28;;
21183;SDS011;18176;49.502;11.754;2023-07-28T00:46:32;5.00;;;4.50;;
21183;SDS011;18176;49.502;11.754;2023-07-28T00:50:33;6.40;;;4.43;;
21183;SDS011;18176;49.502;11.754;2023-07-28T00:54:33;5.25;;;4.15;;
21183;SDS011;18176;49.502;11.754;2023-07-28T00:58:37;5.63;;;4.10;;
21183;SDS011;18176;49.502;11.754;2023-07-28T01:02:37;5.70;;;4.35;;
21183;SDS011;18176;49.502;11.754;2023-07-28T01:06:41;5.50;;;4.50;;
21183;SDS011;18176;49.502;11.754;2023-07-28T01:10:56;5.70;;;4.53;;
21183;SDS011;18176;49.502;11.754;2023-07-28T01:14:59;5.43;;;4.22;;
21183;SDS011;18176;49.502;11.754;2023-07-28T01:19:00;10.35;;;4.72;;
21183;SDS011;18176;49.502;11.754;2023-07-28T01:23:05;4.70;;;4.15;;
21183;SDS011;18176;49.502;11.754;2023-07-28T01:27:16;5.45;;;4.32;;
21183;SDS011;18176;49.502;11.754;2023-07-28T01:31:18;5.22;;;4.38;;
21183;SDS011;18176;49.502;11.754;2023-07-28T01:35:19;4.07;;;3.67;;
21183;SDS011;18176;49.502;11.754;2023-07-28T01:39:19;4.28;;;3.85;;
21183;SDS011;18176;49.502;11.754;2023-07-28T01:43:22;5.47;;;4.00;;
21183;SDS011;18176;49.502;11.754;2023-07-28T01:47:23;4.95;;;3.55;;
21183;SDS011;18176;49.502;11.754;2023-07-28T01:51:25;4.00;;;3.58;;
21183;SDS011;18176;49.502;11.754;2023-07-28T01:55:26;4.10;;;3.70;;
21183;SDS011;18176;49.502;11.754;2023-07-28T01:59:29;3.65;;;3.35;;
21183;SDS011;18176;49.502;11.754;2023-07-28T02:03:30;4.40;;;3.40;;
21183;SDS011;18176;49.502;11.754;2023-07-28T02:07:30;4.15;;;3.50;;
21183;SDS011;18176;49.502;11.754;2023-07-28T02:11:31;4.57;;;3.45;;
21183;SDS011;18176;49.502;11.754;2023-07-28T02:15:33;6.38;;;3.70;;
21183;SDS011;18176;49.502;11.754;2023-07-28T02:19:37;3.72;;;3.22;;
21183;SDS011;18176;49.502;11.754;2023-07-28T02:23:37;3.95;;;3.50;;
21183;SDS011;18176;49.502;11.754;2023-07-28T02:27:38;5.75;;;3.92;;
21183;SDS011;18176;49.502;11.754;2023-07-28T02:31:41;4.28;;;3.72;;
21183;SDS011;18176;49.502;11.754;2023-07-28T02:35:41;6.72;;;3.97;;
21183;SDS011;18176;49.502;11.754;2023-07-28T02:39:42;4.97;;;4.30;;
21183;SDS011;18176;49.502;11.754;2023-07-28T02:43:44;5.78;;;3.97;;
21183;SDS011;18176;49.502;11.754;2023-07-28T02:47:47;5.13;;;4.63;;
21183;SDS011;18176;49.502;11.754;2023-07-28T02:51:47;4.88;;;4.00;;
21183;SDS011;18176;49.502;11.754;2023-07-28T02:55:48;5.95;;;4.20;;
21183;SDS011;18176;49.502;11.754;2023-07-28T02:59:48;5.50;;;4.40;;
21183;SDS011;18176;49.502;11.754;2023-07-28T03:03:54;5.82;;;4.18;;
21183;SDS011;18176;49.502;11.754;2023-07-28T03:07:54;5.30;;;4.28;;
21183;SDS011;18176;49.502;11.754;2023-07-28T03:11:55;5.53;;;3.95;;
21183;SDS011;18176;49.502;11.754;2023-07-28T03:15:56;6.63;;;4.60;;
21183;SDS011;18176;49.502;11.754;2023-07-28T03:19:59;7.70;;;4.28;;
21183;SDS011;18176;49.502;11.754;2023-07-28T03:23:59;5.32;;;4.30;;
21183;SDS011;18176;49.502;11.754;2023-07-28T03:28:00;6.40;;;3.92;;
21183;SDS011;18176;49.502;11.754;2023-07-28T03:32:00;5.18;;;3.70;;
21183;SDS011;18176;49.502;11.754;2023-07-28T03:36:03;3.95;;;3.38;;
21183;SDS011;18176;49.502;11.754;2023-07-28T03:40:06;3.60;;;3.30;;
21183;SDS011;18176;49.502;11.754;2023-07-28T03:44:15;4.20;;;2.90;;
21183;SDS011;18176;49.502;11.754;2023-07-28T03:48:16;4.97;;;2.90;;
21183;SDS011;18176;49.502;11.754;2023-07-28T03:52:19;2.83;;;2.63;;
21183;SDS011;18176;49.502;11.754;2023-07-28T03:56:19;4.72;;;2.70;;
21183;SDS011;18176;49.502;11.754;2023-07-28T04:00:20;3.10;;;2.55;;
21183;SDS011;18176;49.502;11.754;2023-07-28T04:04:20;3.63;;;2.72;;
21183;SDS011;18176;49.502;11.754;2023-07-28T04:08:23;4.07;;;2.60;;
21183;SDS011;18176;49.502;11.754;2023-07-28T04:12:23;2.80;;;2.35;;
21183;SDS011;18176;49.502;11.754;2023-07-28T04:16:25;3.30;;;2.67;;
21183;SDS011;18176;49.502;11.754;2023-07-28T04:20:25;3.50;;;2.80;;
21183;SDS011;18176;49.502;11.754;2023-07-28T04:24:28;3.15;;;2.85;;
21183;SDS011;18176;49.502;11.754;2023-07-28T04:28:29;3.92;;;3.17;;
21183;SDS011;18176;49.502;11.754;2023-07-28T04:32:31;3.42;;;2.80;;
21183;SDS011;18176;49.502;11.754;2023-07-28T04:36:39;3.70;;;3.40;;
21183;SDS011;18176;49.502;11.754;2023-07-28T04:40:42;3.60;;;3.25;;
21183;SDS011;18176;49.502;11.754;2023-07-28T04:44:45;4.40;;;3.97;;
21183;SDS011;18176;49.502;11.754;2023-07-28T04:48:47;4.97;;;3.80;;
21183;SDS011;18176;49.502;11.754;2023-07-28T04:53:26;5.28;;;4.60;;
21183;SDS011;18176;49.502;11.754;2023-07-28T04:57:41;8.27;;;5.68;;
21183;SDS011;18176;49.502;11.754;2023-07-28T05:01:44;6.95;;;5.30;;
21183;SDS011;18176;49.502;11.754;2023-07-28T05:05:44;6.82;;;5.53;;
21183;SDS011;18176;49.502;11.754;2023-07-28T05:09:45;8.38;;;5.60;;
21183;SDS011;18176;49.502;11.754;2023-07-28T05:13:49;8.82;;;6.00;;
21183;SDS011;18176;49.502;11.754;2023-07-28T05:17:49;9.43;;;6.47;;
21183;SDS011;18176;49.502;11.754;2023-07-28T05:22:02;7.00;;;5.72;;
21183;SDS011;18176;49.502;11.754;2023-07-28T05:26:14;5.70;;;4.88;;
21183;SDS011;18176;49.502;11.754;2023-07-28T05:30:17;8.98;;;5.90;;
21183;SDS011;18176;49.502;11.754;2023-07-28T05:34:21;9.48;;;5.90;;
21183;SDS011;18176;49.502;11.754;2023-07-28T05:38:21;6.70;;;6.00;;
21183;SDS011;18176;49.502;11.754;2023-07-28T05:42:22;6.97;;;5.90;;
21183;SDS011;18176;49.502;11.754;2023-07-28T05:46:26;8.77;;;6.55;;
21183;SDS011;18176;49.502;11.754;2023-07-28T05:50:27;8.02;;;5.97;;
21183;SDS011;18176;49.502;11.754;2023-07-28T05:54:28;10.20;;;6.65;;
21183;SDS011;18176;49.502;11.754;2023-07-28T05:58:28;7.97;;;6.20;;
21183;SDS011;18176;49.502;11.754;2023-07-28T06:02:31;7.80;;;5.88;;
21183;SDS011;18176;49.502;11.754;2023-07-28T06:06:32;6.68;;;5.97;;
21183;SDS011;18176;49.502;11.754;2023-07-28T06:10:32;6.72;;;6.03;;
21183;SDS011;18176;49.502;11.754;2023-07-28T06:14:34;8.82;;;6.32;;
21183;SDS011;18176;49.502;11.754;2023-07-28T06:18:39;7.10;;;5.60;;
21183;SDS011;18176;49.502;11.754;2023-07-28T06:22:46;6.75;;;5.88;;
21183;SDS011;18176;49.502;11.754;2023-07-28T06:26:46;8.07;;;6.53;;
21183;SDS011;18176;49.502;11.754;2023-07-28T06:30:47;7.63;;;5.90;;
21183;SDS011;18176;49.502;11.754;2023-07-28T06:34:56;7.03;;;5.50;;
21183;SDS011;18176;49.502;11.754;2023-07-28T06:38:57;7.05;;;5.68;;
21183;SDS011;18176;49.502;11.754;2023-07-28T06:42:58;6.07;;;5.25;;
21183;SDS011;18176;49.502;11.754;2023-07-28T06:46:58;6.05;;;4.97;;
21183;SDS011;18176;49.502;11.754;2023-07-28T06:51:03;5.00;;;4.40;;
21183;SDS011;18176;49.502;11.754;2023-07-28T06:55:04;4.72;;;4.20;;
21183;SDS011;18176;49.502;11.754;2023-07-28T06:59:05;4.93;;;4.30;;
21183;SDS011;18176;49.502;11.754;2023-07-28T07:03:15;5.05;;;3.70;;
21183;SDS011;18176;49.502;11.754;2023-07-28T07:07:19;5.18;;;3.95;;
21183;SDS011;18176;49.502;11.754;2023-07-28T07:11:19;4.22;;;3.40;;
21183;SDS011;18176;49.502;11.754;2023-07-28T07:15:19;4.38;;;3.28;;
21183;SDS011;18176;49.502;11.754;2023-07-28T07:19:23;4.90;;;3.30;;
21183;SDS011;18176;49.502;11.754;2023-07-28T07:23:27;3.33;;;2.95;;
21183;SDS011;18176;49.502;11.754;2023-07-28T07:27:27;4.05;;;3.22;;
21183;SDS011;18176;49.502;11.754;2023-07-28T07:31:27;3.13;;;2.88;;
21183;SDS011;18176;49.502;11.754;2023-07-28T07:35:28;6.35;;;3.28;;
21183;SDS011;18176;49.502;11.754;2023-07-28T07:39:31;7.05;;;3.38;;
21183;SDS011;18176;49.502;11.754;2023-07-28T07:43:33;4.07;;;3.38;;
21183;SDS011;18176;49.502;11.754;2023-07-28T07:47:33;4.07;;;3.67;;
21183;SDS011;18176;49.502;11.754;2023-07-28T07:51:33;4.03;;;3.70;;
21183;SDS011;18176;49.502;11.754;2023-07-28T07:55:36;3.35;;;3.05;;
21183;SDS011;18176;49.502;11.754;2023-07-28T07:59:37;3.75;;;2.75;;
21183;SDS011;18176;49.502;11.754;2023-07-28T08:03:37;4.60;;;2.72;;
21183;SDS011;18176;49.502;11.754;2023-07-28T08:07:38;3.08;;;2.70;;
21183;SDS011;18176;49.502;11.754;2023-07-28T08:11:41;2.88;;;2.58;;
21183;SDS011;18176;49.502;11.754;2023-07-28T08:15:42;2.30;;;1.92;;
21183;SDS011;18176;49.502;11.754;2023-07-28T08:19:43;2.55;;;2.10;;
21183;SDS011;18176;49.502;11.754;2023-07-28T08:23:43;3.47;;;2.15;;
21183;SDS011;18176;49.502;11.754;2023-07-28T08:27:46;5.35;;;2.22;;
21183;SDS011;18176;49.502;11.754;2023-07-28T08:31:46;3.00;;;2.60;;
21183;SDS011;18176;49.502;11.754;2023-07-28T08:35:47;3.67;;;2.67;;
21183;SDS011;18176;49.502;11.754;2023-07-28T08:39:47;3.38;;;2.50;;
21183;SDS011;18176;49.502;11.754;2023-07-28T08:43:50;2.90;;;2.55;;
21183;SDS011;18176;49.502;11.754;2023-07-28T08:47:52;4.05;;;2.65;;
21183;SDS011;18176;49.502;11.754;2023-07-28T08:51:59;2.60;;;2.40;;
21183;SDS011;18176;49.502;11.754;2023-07-28T08:56:00;2.95;;;2.60;;
21183;SDS011;18176;49.502;11.754;2023-07-28T09:00:09;3.33;;;2.65;;
21183;SDS011;18176;49.502;11.754;2023-07-28T09:04:14;3.10;;;2.80;;
21183;SDS011;18176;49.502;11.754;2023-07-28T09:08:15;3.15;;;2.60;;
21183;SDS011;18176;49.502;11.754;2023-07-28T09:12:16;3.15;;;2.58;;
21183;SDS011;18176;49.502;11.754;2023-07-28T09:16:19;4.47;;;2.70;;
21183;SDS011;18176;49.502;11.754;2023-07-28T09:20:21;3.47;;;2.60;;
21183;SDS011;18176;49.502;11.754;2023-07-28T09:24:21;3.38;;;2.63;;
21183;SDS011;18176;49.502;11.754;2023-07-28T09:28:36;3.58;;;2.72;;
21183;SDS011;18176;49.502;11.754;2023-07-28T09:32:40;4.25;;;2.50;;
21183;SDS011;18176;49.502;11.754;2023-07-28T09:36:48;5.15;;;2.60;;
21183;SDS011;18176;49.502;11.754;2023-07-28T09:40:49;3.05;;;2.58;;
21183;SDS011;18176;49.502;11.754;2023-07-28T09:44:50;3.50;;;2.90;;
21183;SDS011;18176;49.502;11.754;2023-07-28T09:48:56;2.58;;;2.30;;
21183;SDS011;18176;49.502;11.754;2023-07-28T09:53:01;4.35;;;2.67;;
21183;SDS011;18176;49.502;11.754;2023-07-28T09:57:02;5.72;;;2.70;;
21183;SDS011;18176;49.502;11.754;2023-07-28T10:01:10;3.03;;;2.72;;
21183;SDS011;18176;49.502;11.754;2023-07-28T10:05:13;3.75;;;2.72;;
21183;SDS011;18176;49.502;11.754;2023-07-28T10:09:15;3.70;;;3.25;;
21183;SDS011;18176;49.502;11.754;2023-07-28T10:13:18;3.47;;;3.17;;
21183;SDS011;18176;49.502;11.754;2023-07-28T10:17:20;3.97;;;3.20;;
21183;SDS011;18176;49.502;11.754;2023-07-28T10:21:37;5.38;;;3.13;;
21183;SDS011;18176;49.502;11.754;2023-07-28T10:25:41;3.90;;;3.60;;
21183;SDS011;18176;49.502;11.754;2023-07-28T10:29:55;3.83;;;3.53;;
21183;SDS011;18176;49.502;11.754;2023-07-28T10:33:59;6.13;;;4.05;;
21183;SDS011;18176;49.502;11.754;2023-07-28T10:42:33;4.47;;;3.80;;
21183;SDS011;18176;49.502;11.754;2023-07-28T10:46:34;3.80;;;3.50;;
21183;SDS011;18176;49.502;11.754;2023-07-28T10:50:36;5.63;;;3.55;;
21183;SDS011;18176;49.502;11.754;2023-07-28T10:54:39;4.18;;;3.03;;
21183;SDS011;18176;49.502;11.754;2023-07-28T10:58:39;5.78;;;3.55;;
21183;SDS011;18176;49.502;11.754;2023-07-28T11:02:41;4.80;;;3.35;;
21183;SDS011;18176;49.502;11.754;2023-07-28T11:06:43;3.70;;;3.13;;
21183;SDS011;18176;49.502;11.754;2023-07-28T11:10:47;3.03;;;2.83;;
21183;SDS011;18176;49.502;11.754;2023-07-28T11:14:50;2.72;;;2.53;;
21183;SDS011;18176;49.502;11.754;2023-07-28T11:18:55;2.90;;;2.70;;
21183;SDS011;18176;49.502;11.754;2023-07-28T11:22:56;2.92;;;2.70;;
21183;SDS011;18176;49.502;11.754;2023-07-28T11:27:03;2.88;;;1.77;;
21183;SDS011;18176;49.502;11.754;2023-07-28T11:31:05;2.08;;;1.88;;
21183;SDS011;18176;49.502;11.754;2023-07-28T11:35:06;1.80;;;1.70;;
21183;SDS011;18176;49.502;11.754;2023-07-28T11:39:09;1.67;;;1.55;;
21183;SDS011;18176;49.502;11.754;2023-07-28T11:43:13;1.88;;;1.70;;
21183;SDS011;18176;49.502;11.754;2023-07-28T11:47:16;2.80;;;1.45;;
21183;SDS011;18176;49.502;11.754;2023-07-28T11:51:18;1.60;;;1.50;;
21183;SDS011;18176;49.502;11.754;2023-07-28T11:55:20;2.70;;;1.45;;
21183;SDS011;18176;49.502;11.754;2023-07-28T11:59:23;1.50;;;1.40;;
21183;SDS011;18176;49.502;11.754;2023-07-28T12:03:29;1.70;;;1.60;;
21183;SDS011;18176;49.502;11.754;2023-07-28T12:07:35;2.00;;;1.80;;
21183;SDS011;18176;49.502;11.754;2023-07-28T12:11:36;1.80;;;1.70;;
21183;SDS011;18176;49.502;11.754;2023-07-28T12:15:47;1.70;;;1.50;;
21183;SDS011;18176;49.502;11.754;2023-07-28T12:19:57;2.22;;;1.60;;
21183;SDS011;18176;49.502;11.754;2023-07-28T12:23:59;1.48;;;1.38;;
21183;SDS011;18176;49.502;11.754;2023-07-28T12:28:03;1.77;;;1.60;;
21183;SDS011;18176;49.502;11.754;2023-07-28T12:32:17;1.90;;;1.80;;
21183;SDS011;18176;49.502;11.754;2023-07-28T12:36:31;1.70;;;1.60;;
21183;SDS011;18176;49.502;11.754;2023-07-28T12:40:35;2.30;;;2.00;;
21183;SDS011;18176;49.502;11.754;2023-07-28T12:44:38;1.90;;;1.80;;
21183;SDS011;18176;49.502;11.754;2023-07-28T12:48:46;2.00;;;1.85;;
21183;SDS011;18176;49.502;11.754;2023-07-28T12:52:46;2.53;;;1.50;;
21183;SDS011;18176;49.502;11.754;2023-07-28T12:56:50;1.60;;;1.50;;
21183;SDS011;18176;49.502;11.754;2023-07-28T13:00:54;1.70;;;1.60;;
21183;SDS011;18176;49.502;11.754;2023-07-28T13:05:01;2.70;;;1.48;;
21183;SDS011;18176;49.502;11.754;2023-07-28T13:09:01;1.48;;;1.30;;
21183;SDS011;18176;49.502;11.754;2023-07-28T13:13:06;1.60;;;1.50;;
21183;SDS011;18176;49.502;11.754;2023-07-28T13:17:10;1.50;;;1.40;;
21183;SDS011;18176;49.502;11.754;2023-07-28T13:21:13;2.13;;;1.58;;
21183;SDS011;18176;49.502;11.754;2023-07-28T13:25:14;3.05;;;1.50;;
21183;SDS011;18176;49.502;11.754;2023-07-28T13:29:14;2.35;;;1.50;;
21183;SDS011;18176;49.502;11.754;2023-07-28T13:33:15;1.52;;;1.42;;
21183;SDS011;18176;49.502;11.754;2023-07-28T13:37:18;2.75;;;1.48;;
21183;SDS011;18176;49.502;11.754;2023-07-28T13:41:19;4.45;;;1.30;;
21183;SDS011;18176;49.502;11.754;2023-07-28T13:45:19;1.20;;;1.20;;
21183;SDS011;18176;49.502;11.754;2023-07-28T13:49:20;1.40;;;1.30;;
21183;SDS011;18176;49.502;11.754;2023-07-28T13:53:24;2.25;;;1.40;;
21183;SDS011;18176;49.502;11.754;2023-07-28T13:57:28;1.40;;;1.30;;
21183;SDS011;18176;49.502;11.754;2023-07-28T14:01:28;1.63;;;1.52;;
21183;SDS011;18176;49.502;11.754;2023-07-28T14:05:30;2.85;;;1.75;;
21183;SDS011;18176;49.502;11.754;2023-07-28T14:09:33;1.45;;;1.30;;
21183;SDS011;18176;49.502;11.754;2023-07-28T14:13:35;1.10;;;1.10;;
21183;SDS011;18176;49.502;11.754;2023-07-28T14:17:35;0.93;;;0.93;;
21183;SDS011;18176;49.502;11.754;2023-07-28T14:21:35;1.20;;;1.10;;
21183;SDS011;18176;49.502;11.754;2023-07-28T14:25:39;1.10;;;1.00;;
21183;SDS011;18176;49.502;11.754;2023-07-28T14:29:39;2.05;;;1.20;;
21183;SDS011;18176;49.502;11.754;2023-07-28T14:33:39;2.50;;;1.50;;
21183;SDS011;18176;49.502;11.754;2023-07-28T14:37:39;1.30;;;1.20;;
21183;SDS011;18176;49.502;11.754;2023-07-28T14:41:42;1.70;;;1.30;;
21183;SDS011;18176;49.502;11.754;2023-07-28T14:45:43;1.50;;;1.40;;
21183;SDS011;18176;49.502;11.754;2023-07-28T14:49:44;1.40;;;1.30;;
21183;SDS011;18176;49.502;11.754;2023-07-28T14:53:44;1.15;;;1.15;;
21183;SDS011;18176;49.502;11.754;2023-07-28T14:57:51;1.25;;;1.15;;
21183;SDS011;18176;49.502;11.754;2023-07-28T15:01:52;1.23;;;1.13;;
21183;SDS011;18176;49.502;11.754;2023-07-28T15:05:53;1.60;;;1.40;;
21183;SDS011;18176;49.502;11.754;2023-07-28T15:09:54;1.15;;;1.15;;
21183;SDS011;18176;49.502;11.754;2023-07-28T15:13:57;1.30;;;1.20;;
21183;SDS011;18176;49.502;11.754;2023-07-28T15:17:57;1.20;;;1.10;;
21183;SDS011;18176;49.502;11.754;2023-07-28T15:21:58;1.40;;;1.30;;
21183;SDS011;18176;49.502;11.754;2023-07-28T15:25:58;1.30;;;1.20;;
21183;SDS011;18176;49.502;11.754;2023-07-28T15:30:02;1.48;;;1.20;;
21183;SDS011;18176;49.502;11.754;2023-07-28T15:34:04;1.30;;;1.20;;
21183;SDS011;18176;49.502;11.754;2023-07-28T15:38:04;1.20;;;1.20;;
21183;SDS011;18176;49.502;11.754;2023-07-28T15:42:05;1.30;;;1.20;;
21183;SDS011;18176;49.502;11.754;2023-07-28T15:46:08;3.25;;;1.30;;
21183;SDS011;18176;49.502;11.754;2023-07-28T15:50:09;2.53;;;1.38;;
21183;SDS011;18176;49.502;11.754;2023-07-28T15:54:09;2.25;;;1.60;;
21183;SDS011;18176;49.502;11.754;2023-07-28T15:58:10;1.63;;;1.40;;
21183;SDS011;18176;49.502;11.754;2023-07-28T16:02:13;1.98;;;1.45;;
21183;SDS011;18176;49.502;11.754;2023-07-28T16:06:13;1.55;;;1.45;;
21183;SDS011;18176;49.502;11.754;2023-07-28T16:10:14;2.00;;;1.40;;
21183;SDS011;18176;49.502;11.754;2023-07-28T16:14:14;1.60;;;1.50;;
21183;SDS011;18176;49.502;11.754;2023-07-28T16:18:17;1.60;;;1.50;;
21183;SDS011;18176;49.502;11.754;2023-07-28T16:22:18;2.22;;;1.75;;
21183;SDS011;18176;49.502;11.754;2023-07-28T16:26:20;3.05;;;1.70;;
21183;SDS011;18176;49.502;11.754;2023-07-28T16:30:20;11.50;;;10.13;;
21183;SDS011;18176;49.502;11.754;2023-07-28T16:34:23;3.85;;;2.40;;
21183;SDS011;18176;49.502;11.754;2023-07-28T16:38:25;2.35;;;1.80;;
21183;SDS011;18176;49.502;11.754;2023-07-28T16:42:26;3.47;;;1.55;;
21183;SDS011;18176;49.502;11.754;2023-07-28T16:46:27;2.30;;;1.60;;
21183;SDS011;18176;49.502;11.754;2023-07-28T16:50:30;3.35;;;1.70;;
21183;SDS011;18176;49.502;11.754;2023-07-28T16:54:30;1.70;;;1.60;;
21183;SDS011;18176;49.502;11.754;2023-07-28T16:58:30;1.65;;;1.55;;
21183;SDS011;18176;49.502;11.754;2023-07-28T17:02:31;3.13;;;1.55;;
21183;SDS011;18176;49.502;11.754;2023-07-28T17:06:34;1.75;;;1.60;;
21183;SDS011;18176;49.502;11.754;2023-07-28T17:10:34;1.80;;;1.50;;
21183;SDS011;18176;49.502;11.754;2023-07-28T17:14:34;1.58;;;1.48;;
21183;SDS011;18176;49.502;11.754;2023-07-28T17:18:35;3.42;;;1.40;;
21183;SDS011;18176;49.502;11.754;2023-07-28T17:22:38;1.40;;;1.30;;
21183;SDS011;18176;49.502;11.754;2023-07-28T17:26:39;1.50;;;1.40;;
21183;SDS011;18176;49.502;11.754;2023-07-28T17:30:42;3.63;;;2.40;;
21183;SDS011;18176;49.502;11.754;2023-07-28T17:34:43;1.50;;;1.40;;
21183;SDS011;18176;49.502;11.754;2023-07-28T17:38:46;2.08;;;1.48;;
21183;SDS011;18176;49.502;11.754;2023-07-28T17:42:47;1.48;;;1.30;;
21183;SDS011;18176;49.502;11.754;2023-07-28T17:46:48;4.82;;;1.70;;
21183;SDS011;18176;49.502;11.754;2023-07-28T17:50:49;2.85;;;1.63;;
21183;SDS011;18176;49.502;11.754;2023-07-28T17:54:53;1.45;;;1.35;;
21183;SDS011;18176;49.502;11.754;2023-07-28T17:58:54;2.08;;;1.30;;
21183;SDS011;18176;49.502;11.754;2023-07-28T18:02:57;1.25;;;1.15;;
21183;SDS011;18176;49.502;11.754;2023-07-28T18:07:00;1.45;;;1.30;;
21183;SDS011;18176;49.502;11.754;2023-07-28T18:11:05;2.30;;;1.20;;
21183;SDS011;18176;49.502;11.754;2023-07-28T18:15:09;1.42;;;1.33;;
21183;SDS011;18176;49.502;11.754;2023-07-28T18:19:12;1.70;;;1.40;;
21183;SDS011;18176;49.502;11.754;2023-07-28T18:23:13;2.17;;;1.40;;
21183;SDS011;18176;49.502;11.754;2023-07-28T18:27:16;1.65;;;1.40;;
21183;SDS011;18176;49.502;11.754;2023-07-28T18:31:16;1.40;;;1.30;;
21183;SDS011;18176;49.502;11.754;2023-07-28T18:35:17;1.60;;;1.50;;
21183;SDS011;18176;49.502;11.754;2023-07-28T18:39:22;1.40;;;1.30;;
21183;SDS011;18176;49.502;11.754;2023-07-28T18:43:28;1.30;;;1.20;;
21183;SDS011;18176;49.502;11.754;2023-07-28T18:47:31;3.10;;;1.30;;
21183;SDS011;18176;49.502;11.754;2023-07-28T18:51:31;1.30;;;1.20;;
21183;SDS011;18176;49.502;11.754;2023-07-28T18:55:32;1.30;;;1.20;;
21183;SDS011;18176;49.502;11.754;2023-07-28T18:59:36;1.92;;;1.30;;
21183;SDS011;18176;49.502;11.754;2023-07-28T19:03:37;2.30;;;1.13;;
21183;SDS011;18176;49.502;11.754;2023-07-28T19:07:38;2.20;;;1.50;;
21183;SDS011;18176;49.502;11.754;2023-07-28T19:11:39;1.42;;;1.20;;
21183;SDS011;18176;49.502;11.754;2023-07-28T19:15:47;1.50;;;1.40;;
21183;SDS011;18176;49.502;11.754;2023-07-28T19:19:51;1.92;;;1.20;;
21183;SDS011;18176;49.502;11.754;2023-07-28T19:23:54;1.30;;;1.20;;
21183;SDS011;18176;49.502;11.754;2023-07-28T19:28:01;1.70;;;1.48;;
21183;SDS011;18176;49.502;11.754;2023-07-28T19:32:07;2.05;;;1.30;;
21183;SDS011;18176;49.502;11.754;2023-07-28T19:36:10;2.00;;;1.77;;
21183;SDS011;18176;49.502;11.754;2023-07-28T19:40:12;3.03;;;1.63;;
21183;SDS011;18176;49.502;11.754;2023-07-28T19:44:13;2.75;;;1.55;;
21183;SDS011;18176;49.502;11.754;2023-07-28T19:48:30;1.73;;;1.30;;
21183;SDS011;18176;49.502;11.754;2023-07-28T19:52:36;2.97;;;1.50;;
21183;SDS011;18176;49.502;11.754;2023-07-28T19:56:38;2.28;;;1.35;;
21183;SDS011;18176;49.502;11.754;2023-07-28T20:00:42;1.67;;;1.40;;
21183;SDS011;18176;49.502;11.754;2023-07-28T20:04:48;3.83;;;1.50;;
21183;SDS011;18176;49.502;11.754;2023-07-28T20:08:48;2.95;;;1.60;;
21183;SDS011;18176;49.502;11.754;2023-07-28T20:12:49;1.70;;;1.60;;
21183;SDS011;18176;49.502;11.754;2023-07-28T20:16:50;1.88;;;1.50;;
21183;SDS011;18176;49.502;11.754;2023-07-28T20:20:53;2.38;;;1.55;;
21183;SDS011;18176;49.502;11.754;2023-07-28T20:24:59;1.38;;;1.27;;
21183;SDS011;18176;49.502;11.754;2023-07-28T20:29:04;1.83;;;1.30;;
21183;SDS011;18176;49.502;11.754;2023-07-28T20:33:09;1.40;;;1.30;;
21183;SDS011;18176;49.502;11.754;2023-07-28T20:37:13;1.67;;;1.40;;
21183;SDS011;18176;49.502;11.754;2023-07-28T20:41:14;2.65;;;1.60;;
21183;SDS011;18176;49.502;11.754;2023-07-28T20:45:17;1.98;;;1.58;;
21183;SDS011;18176;49.502;11.754;2023-07-28T20:49:19;2.60;;;1.77;;
21183;SDS011;18176;49.502;11.754;2023-07-28T20:53:25;2.83;;;1.52;;
21183;SDS011;18176;49.502;11.754;2023-07-28T20:57:29;1.70;;;1.60;;
21183;SDS011;18176;49.502;11.754;2023-07-28T21:01:31;1.67;;;1.40;;
21183;SDS011;18176;49.502;11.754;2023-07-28T21:05:33;3.92;;;1.52;;
21183;SDS011;18176;49.502;11.754;2023-07-28T21:09:40;1.70;;;1.60;;
21183;SDS011;18176;49.502;11.754;2023-07-28T21:13:44;2.05;;;1.42;;
21183;SDS011;18176;49.502;11.754;2023-07-28T21:17:45;4.63;;;1.65;;
21183;SDS011;18176;49.502;11.754;2023-07-28T21:21:48;1.88;;;1.58;;
21183;SDS011;18176;49.502;11.754;2023-07-28T21:25:51;3.15;;;1.83;;
21183;SDS011;18176;49.502;11.754;2023-07-28T21:29:52;1.70;;;1.60;;
21183;SDS011;18176;49.502;11.754;2023-07-28T21:33:52;2.17;;;1.60;;
21183;SDS011;18176;49.502;11.754;2023-07-28T21:37:53;2.72;;;1.60;;
21183;SDS011;18176;49.502;11.754;2023-07-28T21:41:56;1.80;;;1.70;;
21183;SDS011;18176;49.502;11.754;2023-07-28T21:45:56;2.45;;;1.80;;
21183;SDS011;18176;49.502;11.754;2023-07-28T21:49:56;1.75;;;1.65;;
21183;SDS011;18176;49.502;11.754;2023-07-28T21:53:57;2.65;;;1.80;;
21183;SDS011;18176;49.502;11.754;2023-07-28T21:58:00;2.83;;;1.90;;
21183;SDS011;18176;49.502;11.754;2023-07-28T22:02:00;2.10;;;1.88;;
21183;SDS011;18176;49.502;11.754;2023-07-28T22:06:01;2.70;;;1.77;;
21183;SDS011;18176;49.502;11.754;2023-07-28T22:10:02;2.03;;;1.77;;
21183;SDS011;18176;49.502;11.754;2023-07-28T22:14:07;1.77;;;1.60;;
21183;SDS011;18176;49.502;11.754;2023-07-28T22:18:07;2.00;;;1.75;;
21183;SDS011;18176;49.502;11.754;2023-07-28T22:22:08;2.00;;;1.80;;
21183;SDS011;18176;49.502;11.754;2023-07-28T22:26:08;1.73;;;1.60;;
21183;SDS011;18176;49.502;11.754;2023-07-28T22:30:11;1.92;;;1.73;;
21183;SDS011;18176;49.502;11.754;2023-07-28T22:34:11;2.70;;;1.70;;
21183;SDS011;18176;49.502;11.754;2023-07-28T22:38:12;2.20;;;1.80;;
21183;SDS011;18176;49.502;11.754;2023-07-28T22:42:13;2.40;;;1.73;;
21183;SDS011;18176;49.502;11.754;2023-07-28T22:46:16;4.63;;;2.80;;
21183;SDS011;18176;49.502;11.754;2023-07-28T22:50:16;2.53;;;2.33;;
21183;SDS011;18176;49.502;11.754;2023-07-28T22:54:17;1.70;;;1.60;;
21183;SDS011;18176;49.502;11.754;2023-07-28T22:58:17;2.47;;;1.70;;
21183;SDS011;18176;49.502;11.754;2023-07-28T23:02:20;2.65;;;1.70;;
21183;SDS011;18176;49.502;11.754;2023-07-28T23:06:20;3.28;;;2.03;;
21183;SDS011;18176;49.502;11.754;2023-07-28T23:10:20;4.82;;;2.10;;
21183;SDS011;18176;49.502;11.754;2023-07-28T23:14:21;3.08;;;1.60;;
21183;SDS011;18176;49.502;11.754;2023-07-28T23:18:24;3.00;;;1.70;;
21183;SDS011;18176;49.502;11.754;2023-07-28T23:22:24;3.80;;;1.83;;
21183;SDS011;18176;49.502;11.754;2023-07-28T23:26:25;3.55;;;2.03;;
21183;SDS011;18176;49.502;11.754;2023-07-28T23:30:27;1.98;;;1.83;;
21183;SDS011;18176;49.502;11.754;2023-07-28T23:34:30;2.92;;;2.05;;
21183;SDS011;18176;49.502;11.754;2023-07-28T23:38:31;2.28;;;1.77;;
21183;SDS011;18176;49.502;11.754;2023-07-28T23:42:31;2.55;;;1.90;;
21183;SDS011;18176;49.502;11.754;2023-07-28T23:46:31;3.08;;;2.53;;
21183;SDS011;18176;49.502;11.754;2023-07-28T23:50:35;4.00;;;2.17;;
21183;SDS011;18176;49.502;11.754;2023-07-28T23:54:35;3.97;;;2.40;;
21183;SDS011;18176;49.502;11.754;2023-07-28T23:58:36;2.13;;;1.98;;
